sensor_id;sensor_type;location;lat;lon;timestamp;P1;durP1;ratioP1;P2;durP2;ratioP2
77111;SDS011;66064;50.226;14.344;2024-03-17T00:03:46;19.45;;;18.08;;
77111;SDS011;66064;50.226;14.344;2024-03-17T00:06:13;19.98;;;18.77;;
77111;SDS011;66064;50.226;14.344;2024-03-17T00:08:39;20.90;;;19.33;;
77111;SDS011;66064;50.226;14.344;2024-03-17T00:11:07;18.15;;;16.73;;
77111;SDS011;66064;50.226;14.344;2024-03-17T00:13:33;21.25;;;19.63;;
77111;SDS011;66064;50.226;14.344;2024-03-17T00:15:59;22.00;;;20.02;;
77111;SDS011;66064;50.226;14.344;2024-03-17T00:18:25;19.10;;;17.92;;
77111;SDS011;66064;50.226;14.344;2024-03-17T00:20:54;22.40;;;20.90;;
77111;SDS011;66064;50.226;14.344;2024-03-17T00:23:19;19.95;;;18.75;;
77111;SDS011;66064;50.226;14.344;2024-03-17T00:25:46;21.05;;;19.77;;
77111;SDS011;66064;50.226;14.344;2024-03-17T00:28:12;20.45;;;18.80;;
77111;SDS011;66064;50.226;14.344;2024-03-17T00:30:39;21.88;;;20.48;;
77111;SDS011;66064;50.226;14.344;2024-03-17T00:33:07;20.85;;;19.30;;
77111;SDS011;66064;50.226;14.344;2024-03-17T00:35:36;18.90;;;17.65;;
77111;SDS011;66064;50.226;14.344;2024-03-17T00:38:02;20.80;;;19.52;;
77111;SDS011;66064;50.226;14.344;2024-03-17T00:40:38;19.42;;;17.85;;
77111;SDS011;66064;50.226;14.344;2024-03-17T00:43:10;19.42;;;18.02;;
77111;SDS011;66064;50.226;14.344;2024-03-17T00:45:37;17.38;;;16.13;;
77111;SDS011;66064;50.226;14.344;2024-03-17T00:48:03;18.75;;;17.23;;
77111;SDS011;66064;50.226;14.344;2024-03-17T00:50:32;21.08;;;19.55;;
77111;SDS011;66064;50.226;14.344;2024-03-17T00:52:58;16.98;;;15.88;;
77111;SDS011;66064;50.226;14.344;2024-03-17T00:55:27;19.42;;;17.98;;
77111;SDS011;66064;50.226;14.344;2024-03-17T00:58:00;19.75;;;18.45;;
77111;SDS011;66064;50.226;14.344;2024-03-17T01:00:26;20.17;;;18.90;;
77111;SDS011;66064;50.226;14.344;2024-03-17T01:02:52;20.27;;;19.05;;
77111;SDS011;66064;50.226;14.344;2024-03-17T01:05:19;20.17;;;18.88;;
77111;SDS011;66064;50.226;14.344;2024-03-17T01:07:45;20.35;;;18.95;;
77111;SDS011;66064;50.226;14.344;2024-03-17T01:10:14;21.27;;;19.38;;
77111;SDS011;66064;50.226;14.344;2024-03-17T01:12:40;20.80;;;19.60;;
77111;SDS011;66064;50.226;14.344;2024-03-17T01:15:06;18.40;;;17.45;;
77111;SDS011;66064;50.226;14.344;2024-03-17T01:17:33;19.38;;;18.17;;
77111;SDS011;66064;50.226;14.344;2024-03-17T01:20:00;21.60;;;20.25;;
77111;SDS011;66064;50.226;14.344;2024-03-17T01:22:28;20.08;;;18.83;;
77111;SDS011;66064;50.226;14.344;2024-03-17T01:24:56;19.80;;;18.60;;
77111;SDS011;66064;50.226;14.344;2024-03-17T01:27:22;21.88;;;20.77;;
77111;SDS011;66064;50.226;14.344;2024-03-17T01:29:48;21.05;;;19.85;;
77111;SDS011;66064;50.226;14.344;2024-03-17T01:32:14;20.75;;;19.48;;
77111;SDS011;66064;50.226;14.344;2024-03-17T01:34:41;18.83;;;17.88;;
77111;SDS011;66064;50.226;14.344;2024-03-17T01:37:06;19.48;;;18.38;;
77111;SDS011;66064;50.226;14.344;2024-03-17T01:39:33;18.95;;;17.58;;
77111;SDS011;66064;50.226;14.344;2024-03-17T01:42:00;21.63;;;20.33;;
77111;SDS011;66064;50.226;14.344;2024-03-17T01:44:27;20.02;;;18.27;;
77111;SDS011;66064;50.226;14.344;2024-03-17T01:46:55;17.05;;;15.52;;
77111;SDS011;66064;50.226;14.344;2024-03-17T01:49:22;23.63;;;21.77;;
77111;SDS011;66064;50.226;14.344;2024-03-17T01:51:52;17.60;;;16.30;;
77111;SDS011;66064;50.226;14.344;2024-03-17T01:54:20;19.10;;;17.40;;
77111;SDS011;66064;50.226;14.344;2024-03-17T01:56:46;18.75;;;17.63;;
77111;SDS011;66064;50.226;14.344;2024-03-17T01:59:14;20.38;;;18.95;;
77111;SDS011;66064;50.226;14.344;2024-03-17T02:01:40;18.65;;;16.92;;
77111;SDS011;66064;50.226;14.344;2024-03-17T02:04:06;15.63;;;14.73;;
77111;SDS011;66064;50.226;14.344;2024-03-17T02:06:34;18.70;;;17.48;;
77111;SDS011;66064;50.226;14.344;2024-03-17T02:09:00;20.65;;;19.25;;
77111;SDS011;66064;50.226;14.344;2024-03-17T02:11:28;17.13;;;15.88;;
77111;SDS011;66064;50.226;14.344;2024-03-17T02:13:56;21.52;;;20.27;;
77111;SDS011;66064;50.226;14.344;2024-03-17T02:16:23;22.33;;;20.80;;
77111;SDS011;66064;50.226;14.344;2024-03-17T02:18:53;19.45;;;17.92;;
77111;SDS011;66064;50.226;14.344;2024-03-17T02:21:21;21.80;;;20.70;;
77111;SDS011;66064;50.226;14.344;2024-03-17T02:23:49;19.45;;;18.15;;
77111;SDS011;66064;50.226;14.344;2024-03-17T02:26:16;19.02;;;18.02;;
77111;SDS011;66064;50.226;14.344;2024-03-17T02:28:43;21.23;;;20.05;;
77111;SDS011;66064;50.226;14.344;2024-03-17T02:31:12;18.83;;;17.85;;
77111;SDS011;66064;50.226;14.344;2024-03-17T02:33:41;21.75;;;20.27;;
77111;SDS011;66064;50.226;14.344;2024-03-17T02:36:09;18.00;;;17.20;;
77111;SDS011;66064;50.226;14.344;2024-03-17T02:38:40;17.98;;;16.85;;
77111;SDS011;66064;50.226;14.344;2024-03-17T02:41:25;18.95;;;17.85;;
77111;SDS011;66064;50.226;14.344;2024-03-17T02:43:52;22.05;;;20.50;;
77111;SDS011;66064;50.226;14.344;2024-03-17T02:46:18;18.58;;;16.63;;
77111;SDS011;66064;50.226;14.344;2024-03-17T02:48:46;20.30;;;19.27;;
77111;SDS011;66064;50.226;14.344;2024-03-17T02:51:16;17.60;;;16.20;;
77111;SDS011;66064;50.226;14.344;2024-03-17T02:53:45;12.65;;;11.45;;
77111;SDS011;66064;50.226;14.344;2024-03-17T02:56:13;17.88;;;16.88;;
77111;SDS011;66064;50.226;14.344;2024-03-17T02:58:52;20.15;;;19.10;;
77111;SDS011;66064;50.226;14.344;2024-03-17T03:01:19;19.77;;;18.52;;
77111;SDS011;66064;50.226;14.344;2024-03-17T03:03:45;20.58;;;19.48;;
77111;SDS011;66064;50.226;14.344;2024-03-17T03:06:11;20.58;;;19.20;;
77111;SDS011;66064;50.226;14.344;2024-03-17T03:08:39;21.15;;;20.05;;
77111;SDS011;66064;50.226;14.344;2024-03-17T03:11:07;21.02;;;20.08;;
77111;SDS011;66064;50.226;14.344;2024-03-17T03:13:39;23.08;;;21.73;;
77111;SDS011;66064;50.226;14.344;2024-03-17T03:16:09;10.02;;;9.07;;
77111;SDS011;66064;50.226;14.344;2024-03-17T03:18:37;17.42;;;16.35;;
77111;SDS011;66064;50.226;14.344;2024-03-17T03:21:07;22.42;;;21.10;;
77111;SDS011;66064;50.226;14.344;2024-03-17T03:23:34;18.27;;;17.08;;
77111;SDS011;66064;50.226;14.344;2024-03-17T03:26:01;12.38;;;11.48;;
77111;SDS011;66064;50.226;14.344;2024-03-17T03:28:29;14.73;;;13.55;;
77111;SDS011;66064;50.226;14.344;2024-03-17T03:30:59;32.80;;;30.88;;
77111;SDS011;66064;50.226;14.344;2024-03-17T03:33:25;26.08;;;24.55;;
77111;SDS011;66064;50.226;14.344;2024-03-17T03:35:51;19.98;;;18.52;;
77111;SDS011;66064;50.226;14.344;2024-03-17T03:38:17;22.30;;;21.05;;
77111;SDS011;66064;50.226;14.344;2024-03-17T03:40:44;22.33;;;20.63;;
77111;SDS011;66064;50.226;14.344;2024-03-17T03:43:10;22.95;;;21.70;;
77111;SDS011;66064;50.226;14.344;2024-03-17T03:45:36;19.80;;;18.65;;
77111;SDS011;66064;50.226;14.344;2024-03-17T03:48:03;24.42;;;22.92;;
77111;SDS011;66064;50.226;14.344;2024-03-17T03:50:31;22.02;;;20.73;;
77111;SDS011;66064;50.226;14.344;2024-03-17T03:52:59;23.75;;;22.17;;
77111;SDS011;66064;50.226;14.344;2024-03-17T03:55:26;27.65;;;25.95;;
77111;SDS011;66064;50.226;14.344;2024-03-17T03:57:53;22.05;;;20.42;;
77111;SDS011;66064;50.226;14.344;2024-03-17T04:00:19;27.17;;;25.52;;
77111;SDS011;66064;50.226;14.344;2024-03-17T04:02:51;29.65;;;27.75;;
77111;SDS011;66064;50.226;14.344;2024-03-17T04:05:19;12.00;;;11.10;;
77111;SDS011;66064;50.226;14.344;2024-03-17T04:07:46;23.00;;;21.88;;
77111;SDS011;66064;50.226;14.344;2024-03-17T04:10:13;20.05;;;18.83;;
77111;SDS011;66064;50.226;14.344;2024-03-17T04:12:40;21.98;;;20.70;;
77111;SDS011;66064;50.226;14.344;2024-03-17T04:15:07;21.92;;;20.83;;
77111;SDS011;66064;50.226;14.344;2024-03-17T04:17:36;25.42;;;23.88;;
77111;SDS011;66064;50.226;14.344;2024-03-17T04:20:03;21.63;;;20.30;;
77111;SDS011;66064;50.226;14.344;2024-03-17T04:24:59;22.27;;;20.98;;
77111;SDS011;66064;50.226;14.344;2024-03-17T04:27:26;23.55;;;22.05;;
77111;SDS011;66064;50.226;14.344;2024-03-17T04:29:53;23.58;;;21.75;;
77111;SDS011;66064;50.226;14.344;2024-03-17T04:32:21;29.45;;;27.60;;
77111;SDS011;66064;50.226;14.344;2024-03-17T04:34:48;25.52;;;23.67;;
77111;SDS011;66064;50.226;14.344;2024-03-17T04:37:15;24.80;;;23.40;;
77111;SDS011;66064;50.226;14.344;2024-03-17T04:39:43;22.98;;;21.70;;
77111;SDS011;66064;50.226;14.344;2024-03-17T04:42:12;21.77;;;19.88;;
77111;SDS011;66064;50.226;14.344;2024-03-17T04:44:45;24.92;;;23.38;;
77111;SDS011;66064;50.226;14.344;2024-03-17T04:47:11;25.85;;;24.25;;
77111;SDS011;66064;50.226;14.344;2024-03-17T04:49:39;22.25;;;21.00;;
77111;SDS011;66064;50.226;14.344;2024-03-17T04:52:07;24.77;;;23.27;;
77111;SDS011;66064;50.226;14.344;2024-03-17T04:54:34;24.10;;;22.58;;
77111;SDS011;66064;50.226;14.344;2024-03-17T04:57:01;19.42;;;18.23;;
77111;SDS011;66064;50.226;14.344;2024-03-17T04:59:28;23.73;;;22.50;;
77111;SDS011;66064;50.226;14.344;2024-03-17T05:01:54;26.92;;;25.23;;
77111;SDS011;66064;50.226;14.344;2024-03-17T05:04:21;27.27;;;25.52;;
77111;SDS011;66064;50.226;14.344;2024-03-17T05:06:48;25.80;;;24.08;;
77111;SDS011;66064;50.226;14.344;2024-03-17T05:09:16;25.83;;;24.08;;
77111;SDS011;66064;50.226;14.344;2024-03-17T05:11:52;12.90;;;11.63;;
77111;SDS011;66064;50.226;14.344;2024-03-17T05:14:18;26.42;;;25.00;;
77111;SDS011;66064;50.226;14.344;2024-03-17T05:16:50;21.15;;;19.77;;
77111;SDS011;66064;50.226;14.344;2024-03-17T05:19:17;21.10;;;19.70;;
77111;SDS011;66064;50.226;14.344;2024-03-17T05:21:44;22.42;;;20.80;;
77111;SDS011;66064;50.226;14.344;2024-03-17T05:24:11;23.55;;;22.17;;
77111;SDS011;66064;50.226;14.344;2024-03-17T05:26:38;23.90;;;22.48;;
77111;SDS011;66064;50.226;14.344;2024-03-17T05:29:04;26.52;;;24.88;;
77111;SDS011;66064;50.226;14.344;2024-03-17T05:31:30;26.40;;;24.33;;
77111;SDS011;66064;50.226;14.344;2024-03-17T05:33:57;30.30;;;28.35;;
77111;SDS011;66064;50.226;14.344;2024-03-17T05:36:23;32.47;;;29.90;;
77111;SDS011;66064;50.226;14.344;2024-03-17T05:38:50;27.70;;;25.88;;
77111;SDS011;66064;50.226;14.344;2024-03-17T05:41:16;27.98;;;26.17;;
77111;SDS011;66064;50.226;14.344;2024-03-17T05:43:42;25.42;;;23.55;;
77111;SDS011;66064;50.226;14.344;2024-03-17T05:46:09;24.85;;;22.92;;
77111;SDS011;66064;50.226;14.344;2024-03-17T05:48:38;23.40;;;21.63;;
77111;SDS011;66064;50.226;14.344;2024-03-17T05:51:05;25.83;;;23.73;;
77111;SDS011;66064;50.226;14.344;2024-03-17T05:53:32;21.08;;;19.63;;
77111;SDS011;66064;50.226;14.344;2024-03-17T05:55:59;13.15;;;12.07;;
77111;SDS011;66064;50.226;14.344;2024-03-17T05:58:26;17.92;;;16.63;;
77111;SDS011;66064;50.226;14.344;2024-03-17T06:00:53;19.45;;;18.25;;
77111;SDS011;66064;50.226;14.344;2024-03-17T06:03:19;16.10;;;14.75;;
77111;SDS011;66064;50.226;14.344;2024-03-17T06:05:47;18.85;;;17.77;;
77111;SDS011;66064;50.226;14.344;2024-03-17T06:08:14;18.98;;;17.85;;
77111;SDS011;66064;50.226;14.344;2024-03-17T06:10:45;18.52;;;16.90;;
77111;SDS011;66064;50.226;14.344;2024-03-17T06:13:15;17.02;;;15.73;;
77111;SDS011;66064;50.226;14.344;2024-03-17T06:15:44;19.40;;;17.75;;
77111;SDS011;66064;50.226;14.344;2024-03-17T06:18:13;18.25;;;16.55;;
77111;SDS011;66064;50.226;14.344;2024-03-17T06:20:41;12.77;;;11.60;;
77111;SDS011;66064;50.226;14.344;2024-03-17T06:23:09;12.75;;;11.75;;
77111;SDS011;66064;50.226;14.344;2024-03-17T06:25:43;13.38;;;12.48;;
77111;SDS011;66064;50.226;14.344;2024-03-17T06:28:10;13.63;;;12.73;;
77111;SDS011;66064;50.226;14.344;2024-03-17T06:30:43;12.00;;;11.10;;
77111;SDS011;66064;50.226;14.344;2024-03-17T06:33:17;12.57;;;11.57;;
77111;SDS011;66064;50.226;14.344;2024-03-17T06:35:47;11.75;;;10.65;;
77111;SDS011;66064;50.226;14.344;2024-03-17T06:38:14;8.27;;;7.20;;
77111;SDS011;66064;50.226;14.344;2024-03-17T06:40:52;9.45;;;8.65;;
77111;SDS011;66064;50.226;14.344;2024-03-17T06:43:18;9.57;;;8.68;;
77111;SDS011;66064;50.226;14.344;2024-03-17T06:45:55;11.07;;;10.27;;
77111;SDS011;66064;50.226;14.344;2024-03-17T06:48:21;10.15;;;9.32;;
77111;SDS011;66064;50.226;14.344;2024-03-17T06:50:48;10.88;;;9.85;;
77111;SDS011;66064;50.226;14.344;2024-03-17T06:53:15;9.05;;;8.25;;
77111;SDS011;66064;50.226;14.344;2024-03-17T06:55:41;10.27;;;9.38;;
77111;SDS011;66064;50.226;14.344;2024-03-17T06:58:07;11.32;;;10.38;;
77111;SDS011;66064;50.226;14.344;2024-03-17T07:00:34;9.07;;;8.02;;
77111;SDS011;66064;50.226;14.344;2024-03-17T07:03:00;10.25;;;9.32;;
77111;SDS011;66064;50.226;14.344;2024-03-17T07:05:26;8.43;;;7.70;;
77111;SDS011;66064;50.226;14.344;2024-03-17T07:07:52;8.43;;;7.63;;
77111;SDS011;66064;50.226;14.344;2024-03-17T07:10:19;7.32;;;5.05;;
77111;SDS011;66064;50.226;14.344;2024-03-17T07:12:44;8.45;;;7.65;;
77111;SDS011;66064;50.226;14.344;2024-03-17T07:15:11;9.57;;;8.85;;
77111;SDS011;66064;50.226;14.344;2024-03-17T07:17:38;10.07;;;8.27;;
77111;SDS011;66064;50.226;14.344;2024-03-17T07:20:05;10.07;;;8.95;;
77111;SDS011;66064;50.226;14.344;2024-03-17T07:22:34;9.90;;;8.68;;
77111;SDS011;66064;50.226;14.344;2024-03-17T07:25:01;10.65;;;9.57;;
77111;SDS011;66064;50.226;14.344;2024-03-17T07:27:28;8.73;;;7.93;;
77111;SDS011;66064;50.226;14.344;2024-03-17T07:29:54;9.73;;;7.72;;
77111;SDS011;66064;50.226;14.344;2024-03-17T07:32:21;11.82;;;8.93;;
77111;SDS011;66064;50.226;14.344;2024-03-17T07:34:48;8.88;;;8.18;;
77111;SDS011;66064;50.226;14.344;2024-03-17T07:37:15;10.32;;;8.23;;
77111;SDS011;66064;50.226;14.344;2024-03-17T07:39:42;8.63;;;7.45;;
77111;SDS011;66064;50.226;14.344;2024-03-17T07:42:08;8.63;;;7.28;;
77111;SDS011;66064;50.226;14.344;2024-03-17T07:44:34;7.82;;;7.03;;
77111;SDS011;66064;50.226;14.344;2024-03-17T07:47:01;9.68;;;8.52;;
77111;SDS011;66064;50.226;14.344;2024-03-17T07:49:30;8.73;;;7.80;;
77111;SDS011;66064;50.226;14.344;2024-03-17T07:51:56;9.38;;;8.52;;
77111;SDS011;66064;50.226;14.344;2024-03-17T07:54:23;10.35;;;7.65;;
77111;SDS011;66064;50.226;14.344;2024-03-17T07:56:53;10.82;;;8.30;;
77111;SDS011;66064;50.226;14.344;2024-03-17T07:59:19;10.45;;;7.38;;
77111;SDS011;66064;50.226;14.344;2024-03-17T08:01:45;9.75;;;7.07;;
77111;SDS011;66064;50.226;14.344;2024-03-17T08:04:11;7.88;;;7.07;;
77111;SDS011;66064;50.226;14.344;2024-03-17T08:06:41;7.75;;;6.10;;
77111;SDS011;66064;50.226;14.344;2024-03-17T08:09:07;10.50;;;6.57;;
77111;SDS011;66064;50.226;14.344;2024-03-17T08:11:34;8.88;;;5.72;;
77111;SDS011;66064;50.226;14.344;2024-03-17T08:14:02;7.85;;;6.43;;
77111;SDS011;66064;50.226;14.344;2024-03-17T08:16:29;7.07;;;5.88;;
77111;SDS011;66064;50.226;14.344;2024-03-17T08:18:56;11.13;;;6.40;;
77111;SDS011;66064;50.226;14.344;2024-03-17T08:21:22;10.02;;;6.32;;
77111;SDS011;66064;50.226;14.344;2024-03-17T08:23:49;5.70;;;5.18;;
77111;SDS011;66064;50.226;14.344;2024-03-17T08:26:15;8.48;;;5.82;;
77111;SDS011;66064;50.226;14.344;2024-03-17T08:28:41;7.82;;;6.22;;
77111;SDS011;66064;50.226;14.344;2024-03-17T08:31:07;8.20;;;6.50;;
77111;SDS011;66064;50.226;14.344;2024-03-17T08:33:34;6.82;;;5.53;;
77111;SDS011;66064;50.226;14.344;2024-03-17T08:38:28;9.20;;;7.63;;
77111;SDS011;66064;50.226;14.344;2024-03-17T08:40:55;7.95;;;5.93;;
77111;SDS011;66064;50.226;14.344;2024-03-17T08:43:22;9.13;;;5.82;;
77111;SDS011;66064;50.226;14.344;2024-03-17T08:46:02;7.07;;;5.28;;
77111;SDS011;66064;50.226;14.344;2024-03-17T08:48:34;8.02;;;5.20;;
77111;SDS011;66064;50.226;14.344;2024-03-17T08:51:02;6.63;;;4.85;;
77111;SDS011;66064;50.226;14.344;2024-03-17T08:53:29;6.22;;;4.60;;
77111;SDS011;66064;50.226;14.344;2024-03-17T08:55:56;6.82;;;4.72;;
77111;SDS011;66064;50.226;14.344;2024-03-17T08:58:36;6.82;;;4.63;;
77111;SDS011;66064;50.226;14.344;2024-03-17T09:01:08;10.93;;;5.38;;
77111;SDS011;66064;50.226;14.344;2024-03-17T09:03:39;8.48;;;5.07;;
77111;SDS011;66064;50.226;14.344;2024-03-17T09:06:15;6.25;;;4.85;;
77111;SDS011;66064;50.226;14.344;2024-03-17T09:08:46;8.07;;;4.93;;
77111;SDS011;66064;50.226;14.344;2024-03-17T09:11:13;8.38;;;5.10;;
77111;SDS011;66064;50.226;14.344;2024-03-17T09:13:40;7.15;;;5.47;;
77111;SDS011;66064;50.226;14.344;2024-03-17T09:16:06;7.20;;;5.88;;
77111;SDS011;66064;50.226;14.344;2024-03-17T09:18:33;7.97;;;5.93;;
77111;SDS011;66064;50.226;14.344;2024-03-17T09:21:00;8.70;;;6.70;;
77111;SDS011;66064;50.226;14.344;2024-03-17T09:23:31;8.98;;;7.13;;
77111;SDS011;66064;50.226;14.344;2024-03-17T09:26:00;9.93;;;7.43;;
77111;SDS011;66064;50.226;14.344;2024-03-17T09:28:43;8.18;;;7.22;;
77111;SDS011;66064;50.226;14.344;2024-03-17T09:31:09;10.68;;;9.35;;
77111;SDS011;66064;50.226;14.344;2024-03-17T09:33:36;10.45;;;9.40;;
77111;SDS011;66064;50.226;14.344;2024-03-17T09:36:04;11.85;;;8.75;;
77111;SDS011;66064;50.226;14.344;2024-03-17T09:38:32;9.75;;;8.32;;
77111;SDS011;66064;50.226;14.344;2024-03-17T09:40:59;12.63;;;10.00;;
77111;SDS011;66064;50.226;14.344;2024-03-17T09:43:29;10.93;;;9.73;;
77111;SDS011;66064;50.226;14.344;2024-03-17T09:45:58;11.25;;;10.13;;
77111;SDS011;66064;50.226;14.344;2024-03-17T09:48:25;9.38;;;7.30;;
77111;SDS011;66064;50.226;14.344;2024-03-17T09:50:59;11.50;;;10.38;;
77111;SDS011;66064;50.226;14.344;2024-03-17T09:53:30;11.65;;;10.55;;
77111;SDS011;66064;50.226;14.344;2024-03-17T09:58:40;12.13;;;7.88;;
77111;SDS011;66064;50.226;14.344;2024-03-17T10:01:06;12.45;;;9.68;;
77111;SDS011;66064;50.226;14.344;2024-03-17T10:03:40;13.18;;;11.95;;
77111;SDS011;66064;50.226;14.344;2024-03-17T10:06:11;11.70;;;10.20;;
77111;SDS011;66064;50.226;14.344;2024-03-17T10:08:45;14.50;;;13.10;;
77111;SDS011;66064;50.226;14.344;2024-03-17T10:11:12;13.30;;;12.18;;
77111;SDS011;66064;50.226;14.344;2024-03-17T10:13:44;12.65;;;11.40;;
77111;SDS011;66064;50.226;14.344;2024-03-17T10:16:17;14.02;;;12.93;;
77111;SDS011;66064;50.226;14.344;2024-03-17T10:18:50;20.48;;;12.00;;
77111;SDS011;66064;50.226;14.344;2024-03-17T10:21:36;12.77;;;11.68;;
77111;SDS011;66064;50.226;14.344;2024-03-17T10:26:42;14.63;;;12.70;;
77111;SDS011;66064;50.226;14.344;2024-03-17T10:29:31;11.05;;;9.95;;
77111;SDS011;66064;50.226;14.344;2024-03-17T10:32:13;12.00;;;10.50;;
77111;SDS011;66064;50.226;14.344;2024-03-17T10:34:42;11.73;;;8.82;;
77111;SDS011;66064;50.226;14.344;2024-03-17T10:37:18;8.98;;;8.27;;
77111;SDS011;66064;50.226;14.344;2024-03-17T10:39:51;9.52;;;8.63;;
77111;SDS011;66064;50.226;14.344;2024-03-17T10:42:24;7.35;;;6.65;;
77111;SDS011;66064;50.226;14.344;2024-03-17T10:44:54;10.38;;;9.45;;
77111;SDS011;66064;50.226;14.344;2024-03-17T10:47:22;10.20;;;8.32;;
77111;SDS011;66064;50.226;14.344;2024-03-17T10:49:52;8.75;;;7.95;;
77111;SDS011;66064;50.226;14.344;2024-03-17T10:52:24;9.27;;;8.38;;
77111;SDS011;66064;50.226;14.344;2024-03-17T10:54:54;12.98;;;9.95;;
77111;SDS011;66064;50.226;14.344;2024-03-17T11:00:12;10.40;;;9.60;;
77111;SDS011;66064;50.226;14.344;2024-03-17T11:02:42;10.82;;;7.18;;
77111;SDS011;66064;50.226;14.344;2024-03-17T11:05:14;9.70;;;8.75;;
77111;SDS011;66064;50.226;14.344;2024-03-17T11:07:43;7.53;;;6.93;;
77111;SDS011;66064;50.226;14.344;2024-03-17T11:10:21;7.72;;;7.03;;
77111;SDS011;66064;50.226;14.344;2024-03-17T11:17:52;8.50;;;7.80;;
77111;SDS011;66064;50.226;14.344;2024-03-17T11:20:26;9.25;;;8.50;;
77111;SDS011;66064;50.226;14.344;2024-03-17T11:22:57;8.60;;;7.85;;
77111;SDS011;66064;50.226;14.344;2024-03-17T11:27:57;10.35;;;9.35;;
77111;SDS011;66064;50.226;14.344;2024-03-17T11:41:40;9.18;;;8.35;;
77111;SDS011;66064;50.226;14.344;2024-03-17T11:47:01;12.68;;;11.88;;
77111;SDS011;66064;50.226;14.344;2024-03-17T11:51:58;9.35;;;8.55;;
77111;SDS011;66064;50.226;14.344;2024-03-17T11:54:27;7.35;;;6.65;;
77111;SDS011;66064;50.226;14.344;2024-03-17T11:57:00;6.97;;;6.43;;
77111;SDS011;66064;50.226;14.344;2024-03-17T11:59:37;8.88;;;8.15;;
77111;SDS011;66064;50.226;14.344;2024-03-17T12:02:19;8.65;;;7.95;;
77111;SDS011;66064;50.226;14.344;2024-03-17T12:04:56;7.68;;;6.88;;
77111;SDS011;66064;50.226;14.344;2024-03-17T12:07:24;9.30;;;6.85;;
77111;SDS011;66064;50.226;14.344;2024-03-17T12:09:51;7.22;;;5.75;;
77111;SDS011;66064;50.226;14.344;2024-03-17T12:12:20;7.15;;;5.15;;
77111;SDS011;66064;50.226;14.344;2024-03-17T12:14:49;6.32;;;5.72;;
77111;SDS011;66064;50.226;14.344;2024-03-17T12:17:23;7.78;;;7.03;;
77111;SDS011;66064;50.226;14.344;2024-03-17T12:19:50;8.75;;;7.05;;
77111;SDS011;66064;50.226;14.344;2024-03-17T12:22:18;8.68;;;7.78;;
77111;SDS011;66064;50.226;14.344;2024-03-17T12:24:49;9.50;;;8.60;;
77111;SDS011;66064;50.226;14.344;2024-03-17T12:27:19;9.32;;;8.43;;
77111;SDS011;66064;50.226;14.344;2024-03-17T12:29:47;10.18;;;8.98;;
77111;SDS011;66064;50.226;14.344;2024-03-17T12:34:44;8.20;;;7.50;;
77111;SDS011;66064;50.226;14.344;2024-03-17T12:37:17;8.10;;;7.10;;
77111;SDS011;66064;50.226;14.344;2024-03-17T12:39:45;8.70;;;7.95;;
77111;SDS011;66064;50.226;14.344;2024-03-17T12:44:57;6.72;;;6.20;;
77111;SDS011;66064;50.226;14.344;2024-03-17T12:47:26;7.35;;;6.65;;
77111;SDS011;66064;50.226;14.344;2024-03-17T12:49:54;7.47;;;6.88;;
77111;SDS011;66064;50.226;14.344;2024-03-17T12:54:57;7.35;;;6.63;;
77111;SDS011;66064;50.226;14.344;2024-03-17T12:57:49;6.35;;;5.75;;
77111;SDS011;66064;50.226;14.344;2024-03-17T13:00:34;6.43;;;5.78;;
77111;SDS011;66064;50.226;14.344;2024-03-17T13:03:01;7.55;;;5.95;;
77111;SDS011;66064;50.226;14.344;2024-03-17T13:05:30;7.60;;;5.90;;
77111;SDS011;66064;50.226;14.344;2024-03-17T13:07:58;6.13;;;5.47;;
77111;SDS011;66064;50.226;14.344;2024-03-17T13:10:25;7.13;;;4.95;;
77111;SDS011;66064;50.226;14.344;2024-03-17T13:13:04;6.97;;;5.72;;
77111;SDS011;66064;50.226;14.344;2024-03-17T13:15:33;6.57;;;5.90;;
77111;SDS011;66064;50.226;14.344;2024-03-17T13:18:03;8.18;;;6.40;;
77111;SDS011;66064;50.226;14.344;2024-03-17T13:20:34;10.48;;;7.88;;
77111;SDS011;66064;50.226;14.344;2024-03-17T13:23:01;7.55;;;6.68;;
77111;SDS011;66064;50.226;14.344;2024-03-17T13:25:30;8.27;;;7.57;;
77111;SDS011;66064;50.226;14.344;2024-03-17T13:28:02;8.55;;;7.75;;
77111;SDS011;66064;50.226;14.344;2024-03-17T13:30:29;9.55;;;8.80;;
77111;SDS011;66064;50.226;14.344;2024-03-17T13:32:56;9.55;;;8.85;;
77111;SDS011;66064;50.226;14.344;2024-03-17T13:35:28;10.75;;;9.38;;
77111;SDS011;66064;50.226;14.344;2024-03-17T13:37:57;9.15;;;8.45;;
77111;SDS011;66064;50.226;14.344;2024-03-17T13:40:29;7.40;;;6.75;;
77111;SDS011;66064;50.226;14.344;2024-03-17T13:42:55;10.15;;;9.23;;
77111;SDS011;66064;50.226;14.344;2024-03-17T13:45:22;8.77;;;8.02;;
77111;SDS011;66064;50.226;14.344;2024-03-17T13:47:54;10.05;;;8.88;;
77111;SDS011;66064;50.226;14.344;2024-03-17T13:50:23;9.48;;;8.75;;
77111;SDS011;66064;50.226;14.344;2024-03-17T13:52:50;10.63;;;9.75;;
77111;SDS011;66064;50.226;14.344;2024-03-17T13:55:20;9.43;;;8.48;;
77111;SDS011;66064;50.226;14.344;2024-03-17T13:57:50;11.40;;;10.50;;
77111;SDS011;66064;50.226;14.344;2024-03-17T14:00:17;9.70;;;8.90;;
77111;SDS011;66064;50.226;14.344;2024-03-17T14:02:45;9.55;;;8.80;;
77111;SDS011;66064;50.226;14.344;2024-03-17T14:05:13;10.32;;;9.52;;
77111;SDS011;66064;50.226;14.344;2024-03-17T14:07:41;7.22;;;6.53;;
77111;SDS011;66064;50.226;14.344;2024-03-17T14:10:08;9.63;;;8.65;;
77111;SDS011;66064;50.226;14.344;2024-03-17T14:12:41;11.82;;;10.75;;
77111;SDS011;66064;50.226;14.344;2024-03-17T14:15:10;9.23;;;8.25;;
77111;SDS011;66064;50.226;14.344;2024-03-17T14:17:38;9.35;;;8.68;;
77111;SDS011;66064;50.226;14.344;2024-03-17T14:20:06;8.88;;;7.97;;
77111;SDS011;66064;50.226;14.344;2024-03-17T14:22:40;9.48;;;8.43;;
77111;SDS011;66064;50.226;14.344;2024-03-17T14:25:07;9.48;;;8.68;;
77111;SDS011;66064;50.226;14.344;2024-03-17T14:27:40;8.82;;;7.95;;
77111;SDS011;66064;50.226;14.344;2024-03-17T14:30:06;8.02;;;7.03;;
77111;SDS011;66064;50.226;14.344;2024-03-17T14:32:33;9.25;;;8.10;;
77111;SDS011;66064;50.226;14.344;2024-03-17T14:35:02;8.90;;;8.02;;
77111;SDS011;66064;50.226;14.344;2024-03-17T14:37:29;9.63;;;8.77;;
77111;SDS011;66064;50.226;14.344;2024-03-17T14:39:55;9.60;;;8.77;;
77111;SDS011;66064;50.226;14.344;2024-03-17T14:42:23;13.15;;;9.23;;
77111;SDS011;66064;50.226;14.344;2024-03-17T14:44:49;9.35;;;8.65;;
77111;SDS011;66064;50.226;14.344;2024-03-17T14:47:16;12.05;;;11.18;;
77111;SDS011;66064;50.226;14.344;2024-03-17T14:49:42;10.55;;;9.65;;
77111;SDS011;66064;50.226;14.344;2024-03-17T14:52:11;9.82;;;8.98;;
77111;SDS011;66064;50.226;14.344;2024-03-17T14:54:38;10.43;;;9.55;;
77111;SDS011;66064;50.226;14.344;2024-03-17T14:57:05;11.55;;;10.27;;
77111;SDS011;66064;50.226;14.344;2024-03-17T14:59:31;11.80;;;10.90;;
77111;SDS011;66064;50.226;14.344;2024-03-17T15:01:57;9.85;;;8.95;;
77111;SDS011;66064;50.226;14.344;2024-03-17T15:04:24;11.18;;;8.75;;
77111;SDS011;66064;50.226;14.344;2024-03-17T15:09:19;11.00;;;10.05;;
77111;SDS011;66064;50.226;14.344;2024-03-17T15:11:47;9.80;;;8.88;;
77111;SDS011;66064;50.226;14.344;2024-03-17T15:14:13;10.32;;;9.73;;
77111;SDS011;66064;50.226;14.344;2024-03-17T15:16:39;12.07;;;9.15;;